Terminal Aerodrome Forecast
Issued by NWS

Home | Current Version | Previous Version | Text Only | Print | Product List | Glossary On
Versions: 1 2 3 4 5 6 7 8 9 10 11 12
000
FTUS45 KRIW 100500
TAFBPI
TAF
KBPI 100538Z 1006/1106 VRB06KT P6SM VCSH SCT110 BKN200
     FM101600 35010KT P6SM VCSH SCT070 BKN110
     FM102000 35010KT P6SM VCTS SCT070CB BKN120
     FM110300 36008KT P6SM VCSH SCT090 BKN150=

USA.gov is the U.S. government's official web portal to all federal, state and local government web resources and services.